Time;durP1;ratioP1;P1;durP2;ratioP2;P2;SDS_P1;SDS_P2;PMS_P1;PMS_P2;Temp;Humidity;BMP_temperature;BMP_pressure;BME280_temperature;BME280_humidity;BME280_pressure;Samples;Min_cycle;Max_cycle;Signal;HPM_P1;HPM_P2
2022/05/17 00:02:25;;;;;;;4.35;2.75;;;16.20;79.60;;;;;;5046869;28;20036;-66
2022/05/17 00:04:50;;;;;;;6.75;2.97;;;16.10;79.60;;;;;;5047363;28;20112;-67
2022/05/17 00:07:17;;;;;;;3.67;2.78;;;16.10;79.80;;;;;;5053065;28;20040;-67
2022/05/17 00:09:42;;;;;;;3.22;2.92;;;16.00;79.80;;;;;;5053861;28;20095;-67
2022/05/17 00:12:08;;;;;;;4.57;3.30;;;16.00;80.00;;;;;;5048198;28;20495;-67
2022/05/17 00:14:34;;;;;;;5.85;3.30;;;15.90;80.10;;;;;;5046491;28;20029;-67
2022/05/17 00:17:01;;;;;;;5.40;3.35;;;15.90;80.30;;;;;;5045540;28;20579;-67
2022/05/17 00:19:28;;;;;;;3.20;2.90;;;15.90;81.30;;;;;;5048637;28;20040;-68
2022/05/17 00:21:55;;;;;;;8.20;3.10;;;15.80;80.50;;;;;;5052346;28;20028;-68
2022/05/17 00:24:23;;;;;;;4.90;3.20;;;15.80;81.20;;;;;;5047206;28;20029;-67
2022/05/17 00:26:49;;;;;;;3.00;2.72;;;15.80;80.50;;;;;;5048659;28;20037;-67
2022/05/17 00:29:15;;;;;;;2.97;2.78;;;15.70;80.50;;;;;;5047811;28;20033;-67
2022/05/17 00:31:40;;;;;;;3.17;2.88;;;15.70;80.50;;;;;;5047883;28;20037;-66
2022/05/17 00:34:07;;;;;;;3.20;2.45;;;15.70;80.50;;;;;;5063151;28;20025;-67
2022/05/17 00:36:34;;;;;;;3.85;2.72;;;15.70;80.50;;;;;;5047425;28;20040;-67
2022/05/17 00:39:00;;;;;;;7.25;2.90;;;15.70;80.60;;;;;;5047899;28;20029;-67
2022/05/17 00:41:26;;;;;;;4.80;2.90;;;15.70;80.40;;;;;;5047046;28;20057;-68
2022/05/17 00:46:46;;;;;;;9.32;3.50;;;15.60;80.10;;;;;;5044899;28;20110;-67
2022/05/17 00:49:21;;;;;;;3.75;2.97;;;15.60;80.10;;;;;;5047332;28;20044;-67
2022/05/17 00:51:47;;;;;;;4.15;2.95;;;15.60;80.50;;;;;;5051340;28;20508;-67
2022/05/17 00:54:16;;;;;;;3.38;2.92;;;15.50;80.30;;;;;;5047078;28;20043;-66
2022/05/17 00:56:55;;;;;;;3.50;2.65;;;15.50;80.40;;;;;;5047932;28;20047;-67
2022/05/17 00:59:22;;;;;;;4.85;2.85;;;15.40;80.50;;;;;;5047854;28;20036;-67
2022/05/17 01:01:48;;;;;;;4.72;2.97;;;15.40;80.40;;;;;;5046141;28;20040;-67
2022/05/17 01:04:20;;;;;;;3.40;2.53;;;15.30;80.30;;;;;;5046315;28;20041;-65
2022/05/17 01:06:52;;;;;;;3.25;2.88;;;15.30;80.50;;;;;;5051973;28;20040;-67
2022/05/17 01:09:18;;;;;;;3.33;2.90;;;15.30;80.40;;;;;;5049797;28;20029;-67
2022/05/17 01:11:44;;;;;;;2.85;2.65;;;15.30;80.30;;;;;;5040405;28;20036;-66
2022/05/17 01:16:57;;;;;;;4.60;2.78;;;15.30;80.40;;;;;;5046172;28;20423;-66
2022/05/17 01:19:23;;;;;;;3.67;2.88;;;15.20;80.40;;;;;;5050077;28;20061;-67
2022/05/17 01:21:49;;;;;;;5.28;3.38;;;15.20;80.30;;;;;;5046847;28;20041;-67
2022/05/17 01:24:14;;;;;;;5.60;3.10;;;15.20;80.30;;;;;;5051152;28;20064;-66
2022/05/17 01:26:42;;;;;;;3.70;2.80;;;15.20;80.30;;;;;;5045657;28;20068;-67
2022/05/17 01:29:09;;;;;;;3.60;3.08;;;15.20;80.40;;;;;;5046941;28;20041;-66
2022/05/17 01:31:38;;;;;;;3.38;3.00;;;15.10;80.50;;;;;;5043560;28;20048;-67
2022/05/17 01:34:10;;;;;;;3.80;3.10;;;15.10;80.70;;;;;;5047781;28;20044;-67
2022/05/17 01:36:36;;;;;;;3.63;2.88;;;15.10;80.90;;;;;;5051677;28;20052;-67
2022/05/17 01:39:03;;;;;;;5.00;2.60;;;15.00;80.70;;;;;;5050705;28;20079;-66
2022/05/17 01:41:29;;;;;;;4.38;2.88;;;15.00;80.60;;;;;;5047313;28;20055;-67
2022/05/17 01:43:55;;;;;;;2.92;2.63;;;15.00;80.60;;;;;;5046233;28;20503;-67
2022/05/17 01:46:21;;;;;;;4.30;2.92;;;15.00;80.80;;;;;;5045674;28;20710;-66
2022/05/17 01:48:47;;;;;;;3.17;2.78;;;14.90;80.80;;;;;;5044338;28;20033;-67
2022/05/17 01:51:12;;;;;;;5.97;2.72;;;14.90;80.80;;;;;;5047412;28;20029;-67
2022/05/17 01:53:38;;;;;;;3.03;2.83;;;14.90;80.80;;;;;;5045942;28;20037;-67
2022/05/17 01:56:05;;;;;;;3.47;2.95;;;14.90;81.00;;;;;;5045929;28;20098;-67
2022/05/17 01:58:32;;;;;;;2.92;2.70;;;14.90;81.00;;;;;;5049186;28;20032;-67
2022/05/17 02:00:57;;;;;;;5.32;2.60;;;14.80;80.80;;;;;;5049940;28;20546;-67
2022/05/17 02:03:23;;;;;;;4.40;2.67;;;14.80;80.80;;;;;;5043897;28;20041;-65
2022/05/17 02:05:49;;;;;;;3.80;2.80;;;14.80;80.80;;;;;;5050258;28;20252;-68
2022/05/17 02:08:15;;;;;;;4.47;2.90;;;14.80;80.80;;;;;;5051750;28;20037;-67
2022/05/17 02:10:41;;;;;;;2.80;2.60;;;14.80;80.90;;;;;;5054342;28;20042;-67
2022/05/17 02:13:06;;;;;;;4.00;2.55;;;14.80;80.80;;;;;;5049846;28;20037;-66
2022/05/17 02:15:32;;;;;;;4.72;2.65;;;14.80;80.60;;;;;;5052032;28;20041;-67
2022/05/17 02:17:58;;;;;;;3.33;2.60;;;14.80;81.30;;;;;;5052288;28;20543;-64
2022/05/17 02:20:24;;;;;;;5.03;2.80;;;14.80;80.40;;;;;;5053071;28;20033;-66
2022/05/17 02:22:50;;;;;;;6.68;3.13;;;14.80;80.40;;;;;;5045389;28;20063;-67
2022/05/17 02:25:16;;;;;;;5.97;2.97;;;14.70;80.40;;;;;;5055374;28;20029;-66
2022/05/17 02:27:41;;;;;;;4.75;3.13;;;14.70;80.50;;;;;;5049156;28;20033;-67
2022/05/17 02:30:10;;;;;;;4.35;2.72;;;14.70;80.50;;;;;;5050448;28;20033;-67
2022/05/17 02:32:35;;;;;;;2.90;2.55;;;14.60;80.80;;;;;;5050841;28;20534;-65
2022/05/17 02:35:01;;;;;;;2.92;2.70;;;14.60;80.80;;;;;;5051159;28;20036;-67
2022/05/17 02:37:27;;;;;;;3.53;2.90;;;14.60;80.80;;;;;;5049437;28;20033;-67
2022/05/17 02:39:53;;;;;;;3.42;2.47;;;14.60;81.70;;;;;;5051462;28;20037;-67
2022/05/17 02:42:19;;;;;;;3.08;2.78;;;14.60;80.80;;;;;;5049095;28;20103;-67
2022/05/17 02:44:45;;;;;;;3.97;2.88;;;14.50;80.60;;;;;;5047813;28;20736;-67
2022/05/17 02:47:11;;;;;;;3.45;2.70;;;14.50;80.60;;;;;;5051067;28;20040;-66
2022/05/17 02:49:40;;;;;;;4.32;2.78;;;14.50;80.60;;;;;;5049043;28;20033;-66
2022/05/17 02:52:06;;;;;;;4.57;3.10;;;14.40;80.50;;;;;;5052017;28;20520;-67
2022/05/17 02:54:32;;;;;;;3.30;2.50;;;14.40;80.50;;;;;;5051960;28;20040;-67
2022/05/17 02:56:58;;;;;;;3.72;2.60;;;14.40;80.60;;;;;;5050570;28;20059;-67
2022/05/17 02:59:24;;;;;;;4.30;2.90;;;14.30;80.60;;;;;;5051235;28;20036;-66
2022/05/17 03:01:50;;;;;;;2.58;2.30;;;14.30;80.60;;;;;;5051883;28;20048;-67
2022/05/17 03:04:15;;;;;;;4.20;2.85;;;14.20;80.60;;;;;;5047158;28;20044;-64
2022/05/17 03:06:42;;;;;;;3.22;2.75;;;14.20;80.60;;;;;;5045449;28;20033;-67
2022/05/17 03:09:09;;;;;;;4.00;2.70;;;14.20;80.80;;;;;;5050082;28;20040;-67
2022/05/17 03:11:36;;;;;;;2.83;2.58;;;14.10;81.20;;;;;;5049580;28;20045;-65
2022/05/17 03:14:02;;;;;;;4.10;2.30;;;14.10;81.30;;;;;;5048972;28;20036;-67
2022/05/17 03:16:32;;;;;;;2.70;2.28;;;14.10;81.30;;;;;;5048175;28;20040;-66
2022/05/17 03:18:58;;;;;;;3.72;2.35;;;14.10;81.30;;;;;;5052182;28;20163;-66
2022/05/17 03:21:24;;;;;;;2.70;2.50;;;14.10;81.30;;;;;;5049232;28;20404;-64
2022/05/17 03:23:50;;;;;;;3.13;1.92;;;14.10;81.30;;;;;;5049330;28;20086;-67
2022/05/17 03:26:15;;;;;;;2.58;2.35;;;14.10;81.30;;;;;;5053185;28;20156;-66
2022/05/17 03:28:41;;;;;;;2.83;2.30;;;14.10;81.30;;;;;;5050436;28;20033;-67
2022/05/17 03:31:08;;;;;;;4.47;2.22;;;14.10;81.30;;;;;;5049840;28;20403;-67
2022/05/17 03:33:34;;;;;;;3.58;2.30;;;14.10;81.40;;;;;;5047262;28;20028;-67
2022/05/17 03:35:59;;;;;;;2.53;2.30;;;14.10;81.30;;;;;;5049746;28;20042;-68
2022/05/17 03:38:25;;;;;;;3.42;2.20;;;14.20;81.20;;;;;;5048894;28;20539;-66
2022/05/17 03:40:52;;;;;;;2.72;2.40;;;14.10;81.00;;;;;;5047458;28;20029;-67
2022/05/17 03:43:19;;;;;;;4.03;2.67;;;14.10;80.70;;;;;;5050479;28;20404;-67
2022/05/17 03:45:45;;;;;;;3.65;2.45;;;14.10;80.50;;;;;;5048549;28;20024;-67
2022/05/17 03:48:11;;;;;;;3.55;2.42;;;14.10;80.50;;;;;;5049540;28;20036;-67
2022/05/17 03:50:37;;;;;;;3.00;2.70;;;14.00;80.60;;;;;;5051294;28;20122;-67
2022/05/17 03:53:03;;;;;;;2.78;2.55;;;14.00;80.70;;;;;;5049666;28;20500;-66
2022/05/17 03:55:30;;;;;;;2.85;2.50;;;14.00;81.00;;;;;;5053077;28;20695;-67
2022/05/17 03:57:55;;;;;;;2.67;2.22;;;14.00;81.00;;;;;;5066189;28;20033;-67
2022/05/17 04:00:21;;;;;;;3.13;2.50;;;13.90;81.90;;;;;;5047960;28;20396;-67
2022/05/17 04:02:47;;;;;;;5.72;2.63;;;13.90;81.10;;;;;;5048239;28;20072;-67
2022/05/17 04:05:13;;;;;;;3.20;2.78;;;13.90;81.00;;;;;;5049500;28;20029;-67
2022/05/17 04:07:38;;;;;;;2.65;2.45;;;13.90;81.30;;;;;;5049305;28;20103;-67
2022/05/17 04:10:07;;;;;;;2.95;2.67;;;13.90;82.40;;;;;;5051041;28;20036;-67
2022/05/17 04:12:33;;;;;;;3.75;2.22;;;13.90;82.40;;;;;;5045720;28;20037;-67
2022/05/17 04:14:58;;;;;;;2.53;2.33;;;13.90;81.60;;;;;;5049530;28;20392;-67
2022/05/17 04:17:24;;;;;;;2.88;2.65;;;13.90;81.60;;;;;;5049345;28;20032;-67
2022/05/17 04:19:50;;;;;;;3.00;2.70;;;13.90;81.60;;;;;;5047587;28;20025;-66
2022/05/17 04:22:16;;;;;;;3.05;2.42;;;13.90;81.50;;;;;;5049638;28;20449;-67
2022/05/17 04:24:41;;;;;;;4.80;3.08;;;13.90;81.50;;;;;;5048158;28;20087;-67
2022/05/17 04:27:08;;;;;;;3.70;3.40;;;13.90;81.60;;;;;;5048164;28;20029;-66
2022/05/17 04:29:34;;;;;;;5.28;3.13;;;13.90;81.60;;;;;;5043363;28;20042;-66
2022/05/17 04:31:59;;;;;;;4.65;3.47;;;13.90;81.70;;;;;;5035024;28;20036;-66
2022/05/17 04:34:25;;;;;;;4.38;3.60;;;13.90;81.80;;;;;;5048412;28;20163;-68
2022/05/17 04:36:50;;;;;;;5.57;3.17;;;13.90;81.90;;;;;;5045180;28;20416;-65
2022/05/17 04:39:16;;;;;;;3.53;3.20;;;13.90;82.00;;;;;;5050468;28;20033;-66
2022/05/17 04:41:43;;;;;;;3.47;3.17;;;13.90;82.20;;;;;;5056539;28;20025;-67
2022/05/17 04:44:09;;;;;;;4.00;3.70;;;14.00;82.60;;;;;;5056924;28;20154;-67
2022/05/17 04:46:34;;;;;;;4.85;3.75;;;14.00;82.90;;;;;;5050459;28;20589;-67
2022/05/17 04:49:00;;;;;;;11.23;3.70;;;14.00;83.00;;;;;;5050783;28;20045;-67
2022/05/17 04:51:27;;;;;;;6.18;4.10;;;14.10;83.30;;;;;;5054400;28;20518;-67
2022/05/17 04:53:52;;;;;;;4.57;4.13;;;14.10;83.50;;;;;;5055324;28;20113;-68
2022/05/17 04:56:19;;;;;;;7.97;3.83;;;14.20;83.70;;;;;;5051804;28;20519;-66
2022/05/17 04:58:45;;;;;;;7.40;3.50;;;14.20;84.50;;;;;;5053293;28;20040;-67
2022/05/17 05:01:10;;;;;;;9.00;3.53;;;14.30;83.80;;;;;;5051543;28;20523;-67
2022/05/17 05:03:36;;;;;;;11.85;3.75;;;14.30;83.80;;;;;;5055626;28;20044;-66
2022/05/17 05:06:02;;;;;;;6.63;3.40;;;14.40;84.00;;;;;;5055200;28;20610;-66
2022/05/17 05:08:27;;;;;;;9.07;3.20;;;14.40;84.00;;;;;;5054287;28;20033;-67
2022/05/17 05:10:53;;;;;;;7.07;3.00;;;14.50;84.10;;;;;;5049601;28;21706;-66
2022/05/17 05:13:20;;;;;;;8.70;3.05;;;14.50;84.10;;;;;;5050779;28;20115;-66
2022/05/17 05:15:47;;;;;;;3.25;3.05;;;14.60;84.20;;;;;;5051886;28;20029;-67
2022/05/17 05:18:12;;;;;;;5.15;2.80;;;14.60;84.20;;;;;;5050641;28;20105;-67
2022/05/17 05:20:39;;;;;;;4.90;2.80;;;14.70;84.30;;;;;;5051019;28;20503;-67
2022/05/17 05:23:08;;;;;;;8.70;2.65;;;14.70;84.30;;;;;;5054908;28;20041;-67
2022/05/17 05:25:34;;;;;;;5.07;2.72;;;14.80;84.20;;;;;;5054468;28;20051;-66
2022/05/17 05:28:01;;;;;;;2.92;2.72;;;14.80;84.10;;;;;;5052209;28;20077;-67
2022/05/17 05:30:26;;;;;;;2.85;2.65;;;14.90;84.10;;;;;;5054174;28;20056;-67
2022/05/17 05:32:52;;;;;;;8.35;2.92;;;14.90;84.10;;;;;;5051480;28;20039;-66
2022/05/17 05:35:22;;;;;;;4.25;2.95;;;15.00;84.20;;;;;;5053730;28;20094;-66
2022/05/17 05:37:48;;;;;;;17.13;2.90;;;15.10;84.30;;;;;;5051257;28;20032;-67
2022/05/17 05:40:14;;;;;;;9.88;2.83;;;15.10;84.20;;;;;;5051877;28;20087;-67
2022/05/17 05:42:41;;;;;;;10.70;3.13;;;15.20;84.10;;;;;;5053625;28;20058;-67
2022/05/17 05:45:08;;;;;;;3.40;3.20;;;15.20;84.20;;;;;;5049855;28;20482;-66
2022/05/17 05:47:34;;;;;;;4.25;3.50;;;15.30;84.40;;;;;;5051172;28;20041;-68
2022/05/17 05:50:00;;;;;;;3.47;3.17;;;15.30;84.60;;;;;;5049937;28;20036;-67
2022/05/17 05:52:26;;;;;;;4.40;3.47;;;15.40;84.70;;;;;;5051085;28;20043;-66
2022/05/17 05:54:51;;;;;;;3.60;3.13;;;15.50;84.90;;;;;;5051015;28;20033;-66
2022/05/17 05:57:17;;;;;;;4.43;3.45;;;15.50;85.00;;;;;;5052322;28;20554;-66
2022/05/17 05:59:43;;;;;;;3.92;3.53;;;15.60;85.00;;;;;;5056694;28;20094;-67
2022/05/17 06:02:10;;;;;;;4.20;3.80;;;15.70;85.10;;;;;;5053466;28;20393;-67
2022/05/17 06:04:36;;;;;;;6.70;3.45;;;15.70;85.20;;;;;;5050250;28;20036;-67
2022/05/17 06:07:03;;;;;;;3.83;3.50;;;15.80;85.00;;;;;;5051954;28;20031;-66
2022/05/17 06:09:29;;;;;;;4.40;4.03;;;15.90;85.20;;;;;;5054411;28;20032;-66
2022/05/17 06:11:55;;;;;;;5.18;4.60;;;16.00;85.20;;;;;;5054587;28;20029;-66
2022/05/17 06:14:21;;;;;;;6.95;4.70;;;16.00;85.20;;;;;;5050354;28;20110;-67
2022/05/17 06:16:49;;;;;;;5.80;4.50;;;16.10;85.20;;;;;;5054912;28;20443;-67
2022/05/17 06:19:14;;;;;;;4.90;4.38;;;16.20;85.30;;;;;;5051298;28;20036;-66
2022/05/17 06:21:40;;;;;;;5.25;4.20;;;16.20;85.60;;;;;;5049221;28;20036;-65
2022/05/17 06:24:06;;;;;;;5.32;4.00;;;16.30;86.40;;;;;;5052815;28;20049;-67
2022/05/17 06:26:33;;;;;;;5.78;4.63;;;16.40;85.40;;;;;;5049945;28;20036;-66
2022/05/17 06:28:59;;;;;;;5.97;4.25;;;16.50;85.20;;;;;;5051381;28;20571;-67
2022/05/17 06:31:25;;;;;;;6.90;4.30;;;16.60;85.30;;;;;;5051602;28;20033;-67
2022/05/17 06:33:51;;;;;;;5.10;4.47;;;16.70;85.20;;;;;;5052233;28;20051;-67
2022/05/17 06:36:16;;;;;;;4.80;4.15;;;16.80;84.80;;;;;;5050290;28;20032;-66
2022/05/17 06:38:42;;;;;;;4.75;4.10;;;16.90;84.30;;;;;;5051705;28;20047;-66
2022/05/17 06:41:08;;;;;;;7.20;4.40;;;16.90;84.00;;;;;;5053985;28;20081;-67
2022/05/17 06:43:34;;;;;;;6.13;4.18;;;17.00;83.80;;;;;;5052895;28;20044;-67
2022/05/17 06:46:01;;;;;;;6.32;4.40;;;17.10;83.50;;;;;;5055243;28;20375;-67
2022/05/17 06:48:28;;;;;;;4.65;3.65;;;17.20;83.70;;;;;;5052990;28;20029;-66
2022/05/17 06:50:54;;;;;;;6.45;4.35;;;17.30;83.40;;;;;;5059018;28;20040;-67
2022/05/17 06:53:20;;;;;;;5.30;4.20;;;17.40;83.40;;;;;;5057117;28;20176;-66
2022/05/17 06:55:45;;;;;;;4.93;4.35;;;17.50;83.60;;;;;;5053943;28;20036;-67
2022/05/17 06:58:11;;;;;;;5.93;4.32;;;17.60;83.30;;;;;;5054265;28;20068;-67
2022/05/17 07:00:37;;;;;;;8.25;4.60;;;17.70;82.90;;;;;;5056981;28;20050;-67
2022/05/17 07:03:03;;;;;;;6.00;4.70;;;17.80;83.10;;;;;;5059483;28;20033;-66
2022/05/17 07:05:29;;;;;;;6.45;4.82;;;17.90;83.10;;;;;;5059815;28;20099;-67
2022/05/17 07:07:59;;;;;;;8.85;4.85;;;18.00;83.20;;;;;;5059400;28;20037;-67
2022/05/17 07:13:08;;;;;;;7.95;4.88;;;18.20;83.10;;;;;;5055889;28;20126;-67
2022/05/17 07:15:42;;;;;;;7.25;4.90;;;18.30;82.60;;;;;;5056153;28;22150;-67
2022/05/17 07:18:09;;;;;;;5.60;4.63;;;18.40;81.90;;;;;;5054563;28;20175;-67
2022/05/17 07:20:36;;;;;;;5.82;5.20;;;18.50;81.30;;;;;;5055369;28;20051;-67
2022/05/17 07:23:03;;;;;;;6.88;5.03;;;18.60;80.90;;;;;;5052405;28;20041;-66
2022/05/17 07:25:30;;;;;;;7.65;4.88;;;18.70;81.00;;;;;;5052736;28;20095;-67
2022/05/17 07:27:55;;;;;;;5.95;4.93;;;18.70;80.90;;;;;;5056013;28;20037;-67
2022/05/17 07:30:21;;;;;;;5.18;4.75;;;18.80;81.00;;;;;;5053776;28;20127;-67
2022/05/17 07:32:47;;;;;;;8.20;4.82;;;18.90;81.00;;;;;;5053832;28;20499;-66
2022/05/17 07:35:13;;;;;;;6.50;4.97;;;19.00;80.50;;;;;;5055452;28;20036;-66
2022/05/17 07:37:38;;;;;;;7.15;5.55;;;19.10;79.90;;;;;;5056235;28;20052;-66
2022/05/17 07:40:05;;;;;;;7.20;4.88;;;19.20;79.60;;;;;;5054689;28;20037;-67
2022/05/17 07:42:31;;;;;;;5.53;4.72;;;19.20;79.10;;;;;;5057041;28;20500;-66
2022/05/17 07:44:57;;;;;;;5.35;4.68;;;19.30;79.20;;;;;;5054212;28;20408;-67
2022/05/17 07:47:23;;;;;;;6.07;5.20;;;19.40;78.70;;;;;;5060488;28;20029;-67
2022/05/17 07:49:49;;;;;;;6.70;4.85;;;19.50;78.50;;;;;;5058750;28;20381;-67
2022/05/17 07:52:14;;;;;;;5.13;4.63;;;19.60;78.20;;;;;;5055161;28;20054;-66
2022/05/17 07:54:41;;;;;;;5.05;4.57;;;19.60;78.40;;;;;;5058179;28;20029;-66
2022/05/17 07:57:07;;;;;;;5.65;4.97;;;19.70;78.10;;;;;;5055007;28;20029;-67
2022/05/17 07:59:33;;;;;;;5.15;4.60;;;19.80;78.00;;;;;;5056187;28;20565;-66
2022/05/17 08:01:59;;;;;;;5.47;4.85;;;19.90;78.00;;;;;;5052361;28;20033;-66
2022/05/17 08:04:25;;;;;;;5.38;4.88;;;20.00;77.70;;;;;;5056510;28;20079;-67
2022/05/17 08:06:51;;;;;;;5.32;4.63;;;20.10;77.30;;;;;;5053684;28;20185;-66
2022/05/17 08:09:17;;;;;;;4.85;4.20;;;20.10;76.80;;;;;;5053988;28;20104;-67
2022/05/17 08:11:44;;;;;;;5.63;4.30;;;20.20;76.70;;;;;;5052370;28;20040;-67
2022/05/17 08:14:10;;;;;;;5.90;4.60;;;20.30;76.20;;;;;;5054332;28;20055;-67
2022/05/17 08:16:36;;;;;;;6.90;4.50;;;20.30;75.40;;;;;;5050317;28;20512;-67
2022/05/17 08:19:01;;;;;;;5.10;4.60;;;20.40;74.80;;;;;;5054611;28;20029;-67
2022/05/17 08:21:27;;;;;;;4.95;4.13;;;20.50;74.10;;;;;;5053495;28;20029;-64
2022/05/17 08:23:52;;;;;;;4.95;4.45;;;20.50;73.70;;;;;;5050940;28;20385;-66
2022/05/17 08:29:03;;;;;;;4.40;3.93;;;20.70;73.00;;;;;;5056362;28;20519;-67
2022/05/17 08:31:28;;;;;;;4.78;4.22;;;20.70;72.90;;;;;;5055417;28;20033;-67
2022/05/17 08:33:54;;;;;;;5.13;4.38;;;20.80;72.80;;;;;;5054629;28;20222;-67
2022/05/17 08:36:19;;;;;;;5.00;4.10;;;20.90;72.50;;;;;;5054846;28;20052;-67
2022/05/17 08:38:48;;;;;;;4.25;3.85;;;20.90;72.00;;;;;;5055993;28;20178;-67
2022/05/17 08:41:24;;;;;;;6.85;4.97;;;21.00;72.00;;;;;;5054988;28;20032;-67
2022/05/17 08:44:00;;;;;;;5.22;4.25;;;21.10;71.10;;;;;;5055267;28;20071;-67
2022/05/17 08:46:44;;;;;;;6.70;4.70;;;21.20;70.80;;;;;;5052335;28;20096;-67
2022/05/17 08:49:31;;;;;;;5.13;4.07;;;21.20;67.40;;;;;;5053792;28;20535;-67
2022/05/17 08:52:13;;;;;;;4.30;3.70;;;21.30;68.90;;;;;;5053486;28;20025;-67
2022/05/17 08:54:48;;;;;;;7.05;4.07;;;21.20;68.70;;;;;;5052526;28;20507;-67
2022/05/17 08:57:43;;;;;;;5.18;4.00;;;21.20;69.90;;;;;;5054765;28;20041;-67
2022/05/17 09:00:31;;;;;;;5.00;3.90;;;21.20;68.60;;;;;;5052463;28;20438;-67
2022/05/17 09:03:01;;;;;;;5.40;4.00;;;21.30;69.70;;;;;;5052938;28;20059;-67
2022/05/17 09:06:07;;;;;;;6.32;3.75;;;21.40;69.20;;;;;;5053314;28;20025;-67
2022/05/17 09:08:49;;;;;;;4.75;3.20;;;21.50;67.60;;;;;;5041901;28;20060;-66
2022/05/17 09:11:18;;;;;;;6.28;3.15;;;21.50;68.50;;;;;;5054250;28;20047;-67
2022/05/17 09:13:54;;;;;;;4.97;3.42;;;21.60;68.30;;;;;;5052640;28;20561;-67
2022/05/17 09:16:23;;;;;;;4.47;3.38;;;21.70;67.60;;;;;;5051705;28;20555;-67
2022/05/17 09:18:50;;;;;;;4.03;3.33;;;21.80;67.80;;;;;;5054947;28;20527;-67
2022/05/17 09:21:43;;;;;;;5.22;3.80;;;21.90;67.30;;;;;;5055594;28;20033;-67
2022/05/17 09:24:12;;;;;;;4.53;3.47;;;22.10;66.20;;;;;;5052761;28;20044;-67
2022/05/17 09:26:50;;;;;;;4.30;3.47;;;22.20;66.50;;;;;;5048418;28;20479;-65
2022/05/17 09:29:36;;;;;;;4.22;3.35;;;22.30;65.30;;;;;;5053028;28;20052;-66
2022/05/17 09:32:07;;;;;;;5.25;3.10;;;22.30;64.00;;;;;;5053115;28;20112;-66
2022/05/17 09:34:41;;;;;;;6.00;3.60;;;22.40;64.90;;;;;;5054904;28;22649;-67
2022/05/17 09:37:16;;;;;;;4.63;3.20;;;22.50;64.10;;;;;;5058447;28;20083;-65
2022/05/17 09:39:48;;;;;;;;;;;22.60;63.80;;;;;;5056377;28;20024;-67
2022/05/17 09:42:29;;;;;;;4.57;3.22;;;22.70;65.00;;;;;;5064457;28;20283;-67
2022/05/17 09:44:56;;;;;;;3.85;3.20;;;22.80;62.40;;;;;;5052464;28;20062;-67
2022/05/17 09:47:34;;;;;;;5.05;2.92;;;22.80;63.60;;;;;;5056472;28;20039;-67
2022/05/17 09:53:04;;;;;;;4.10;2.65;;;22.90;62.70;;;;;;5053498;28;20040;-67
2022/05/17 09:55:32;;;;;;;3.05;2.75;;;23.00;61.00;;;;;;5053928;28;20112;-67
2022/05/17 09:58:01;;;;;;;3.63;2.97;;;23.10;62.00;;;;;;5048061;28;20120;-67
2022/05/17 10:00:42;;;;;;;2.90;2.60;;;23.20;62.10;;;;;;5052203;28;20040;-67
2022/05/17 10:03:19;;;;;;;4.43;2.78;;;23.30;60.70;;;;;;5051281;28;20404;-65
2022/05/17 10:05:45;;;;;;;3.28;2.72;;;23.40;60.70;;;;;;5050665;28;20037;-65
2022/05/17 10:08:13;;;;;;;5.47;2.92;;;23.50;60.80;;;;;;5054340;28;20724;-65
2022/05/17 10:10:47;;;;;;;3.00;2.70;;;23.60;59.20;;;;;;5049179;28;20630;-65
2022/05/17 10:13:44;;;;;;;4.30;2.72;;;23.60;59.00;;;;;;5049920;28;20432;-64
2022/05/17 10:16:16;;;;;;;2.60;2.30;;;23.70;59.40;;;;;;5039680;28;20120;-65
2022/05/17 10:18:53;;;;;;;3.13;2.55;;;23.70;60.10;;;;;;5052144;28;20025;-64
2022/05/17 10:21:29;;;;;;;4.22;2.53;;;23.80;59.50;;;;;;5058998;28;20040;-65
2022/05/17 10:24:17;;;;;;;3.80;2.60;;;23.80;58.50;;;;;;5052699;28;20087;-65
2022/05/17 10:27:01;;;;;;;3.38;2.35;;;24.00;57.70;;;;;;5050881;28;20039;-65
2022/05/17 10:29:40;;;;;;;2.97;2.55;;;24.00;57.30;;;;;;5057579;28;20369;-65
2022/05/17 10:32:20;;;;;;;3.40;2.45;;;24.10;57.50;;;;;;5062782;28;20403;-65
2022/05/17 10:34:52;;;;;;;2.58;2.38;;;24.10;57.40;;;;;;5053690;28;20071;-65
2022/05/17 10:37:30;;;;;;;4.15;2.10;;;24.10;57.10;;;;;;5054905;28;20501;-65
2022/05/17 10:40:14;;;;;;;4.00;2.65;;;24.20;56.70;;;;;;5054179;28;20257;-65
2022/05/17 10:42:41;;;;;;;3.03;2.33;;;24.20;53.70;;;;;;5055539;28;20044;-64
2022/05/17 10:45:10;;;;;;;2.47;2.28;;;24.30;56.30;;;;;;5055560;28;20114;-65
2022/05/17 10:47:48;;;;;;;3.08;2.40;;;24.30;56.20;;;;;;5054572;28;20123;-64
2022/05/17 10:50:41;;;;;;;3.00;2.30;;;24.30;56.50;;;;;;5052839;28;20029;-65
2022/05/17 10:53:19;;;;;;;2.78;2.25;;;24.30;56.10;;;;;;5053459;28;20025;-65
2022/05/17 10:56:22;;;;;;;2.72;2.10;;;24.40;56.70;;;;;;5054800;28;20035;-67
2022/05/17 10:59:09;;;;;;;2.20;1.92;;;24.50;55.60;;;;;;5055885;28;20048;-67
2022/05/17 11:01:47;;;;;;;3.92;2.10;;;24.60;54.50;;;;;;5054666;28;20064;-66
2022/05/17 11:04:59;;;;;;;4.32;2.35;;;24.60;55.30;;;;;;5055363;28;20032;-68
2022/05/17 11:07:40;;;;;;;2.70;2.17;;;24.70;54.80;;;;;;5054533;28;20029;-68
2022/05/17 11:10:05;;;;;;;3.15;2.10;;;24.70;53.80;;;;;;5053222;28;20041;-66
2022/05/17 11:12:39;;;;;;;3.25;2.45;;;24.70;55.90;;;;;;5048599;28;20102;-67
2022/05/17 11:15:15;;;;;;;3.05;2.17;;;24.70;55.70;;;;;;5049607;28;20037;-67
2022/05/17 11:17:54;;;;;;;3.15;2.10;;;24.70;55.30;;;;;;5053823;28;20658;-67
2022/05/17 11:20:26;;;;;;;2.42;2.15;;;24.80;55.70;;;;;;5048535;28;20459;-67
2022/05/17 11:23:30;;;;;;;4.55;2.30;;;24.80;55.90;;;;;;5054497;28;20024;-66
2022/05/17 11:26:14;;;;;;;2.77;2.27;;;24.80;54.10;;;;;;5052105;28;20052;-67
2022/05/17 11:29:00;;;;;;;2.22;2.03;;;24.90;53.20;;;;;;5048754;28;20540;-67
2022/05/17 11:31:29;;;;;;;4.07;2.30;;;24.80;54.40;;;;;;5052836;28;20025;-67
2022/05/17 11:34:30;;;;;;;3.00;2.30;;;24.80;54.40;;;;;;5052344;28;20426;-67
2022/05/17 11:37:03;;;;;;;3.22;2.08;;;24.90;54.30;;;;;;5050166;28;20094;-67
2022/05/17 11:39:31;;;;;;;3.33;2.08;;;24.90;54.80;;;;;;5045638;28;20033;-68
2022/05/17 11:42:06;;;;;;;5.20;1.95;;;24.90;54.10;;;;;;5051232;28;20060;-68
2022/05/17 11:44:49;;;;;;;2.38;2.17;;;24.90;53.60;;;;;;5059466;28;20569;-68
2022/05/17 11:47:37;;;;;;;2.70;2.33;;;24.90;53.40;;;;;;5054578;28;20040;-67
2022/05/17 11:50:15;;;;;;;2.67;2.30;;;24.90;52.30;;;;;;5049822;28;20025;-68
2022/05/17 11:52:48;;;;;;;3.05;1.85;;;24.90;52.00;;;;;;5050499;28;20051;-65
2022/05/17 11:55:19;;;;;;;3.58;2.17;;;24.90;53.50;;;;;;5052166;28;20523;-65
2022/05/17 11:57:48;;;;;;;2.30;2.20;;;25.00;52.30;;;;;;5050070;28;21766;-64
2022/05/17 12:00:28;;;;;;;2.47;2.00;;;25.00;51.30;;;;;;5048448;28;20032;-64
2022/05/17 12:03:00;;;;;;;4.53;2.05;;;24.90;50.70;;;;;;5049950;28;20588;-65
2022/05/17 12:05:37;;;;;;;2.25;2.05;;;24.90;52.80;;;;;;5051221;28;20052;-64
2022/05/17 12:08:25;;;;;;;3.13;2.50;;;24.80;51.80;;;;;;5049550;28;21804;-65
2022/05/17 12:11:07;;;;;;;2.03;1.75;;;24.80;52.40;;;;;;5049753;28;20563;-65
2022/05/17 12:13:49;;;;;;;2.15;1.95;;;24.80;53.00;;;;;;5050453;28;20179;-65
2022/05/17 12:16:19;;;;;;;2.83;1.88;;;24.80;52.90;;;;;;5046953;28;20033;-65
2022/05/17 12:18:59;;;;;;;2.03;1.83;;;24.90;52.60;;;;;;5051218;28;20036;-64
2022/05/17 12:21:50;;;;;;;3.72;1.60;;;24.90;52.20;;;;;;5049935;28;20457;-66
2022/05/17 12:24:50;;;;;;;2.10;1.90;;;25.00;52.00;;;;;;5053232;28;20381;-65
2022/05/17 12:27:26;;;;;;;2.13;1.88;;;25.00;51.80;;;;;;5053921;28;20086;-65
2022/05/17 12:33:05;;;;;;;3.00;1.88;;;25.10;50.80;;;;;;5049427;28;20313;-65
2022/05/17 12:35:30;;;;;;;4.35;2.00;;;25.10;51.30;;;;;;5052984;28;20090;-65
2022/05/17 12:37:56;;;;;;;3.13;1.92;;;25.00;51.00;;;;;;5046775;28;20057;-65
2022/05/17 12:43:14;;;;;;;1.80;1.70;;;25.00;51.90;;;;;;5052944;28;20055;-66
2022/05/17 12:45:45;;;;;;;3.75;1.77;;;25.10;51.30;;;;;;5050030;28;20476;-65
2022/05/17 12:48:19;;;;;;;1.77;1.67;;;25.10;51.50;;;;;;5054796;28;20028;-65
2022/05/17 12:50:56;;;;;;;1.80;1.70;;;25.20;50.40;;;;;;5052435;28;20442;-65
2022/05/17 12:53:29;;;;;;;3.10;1.95;;;25.20;51.50;;;;;;5050296;28;20151;-66
2022/05/17 12:56:07;;;;;;;2.38;1.85;;;25.20;51.10;;;;;;5045893;28;20120;-66
2022/05/17 12:58:46;;;;;;;2.65;1.90;;;25.30;50.80;;;;;;5052999;28;20033;-65
2022/05/17 13:01:13;;;;;;;2.30;1.80;;;25.30;51.20;;;;;;5047989;28;20450;-66
2022/05/17 13:03:43;;;;;;;3.17;1.90;;;25.30;51.70;;;;;;5050765;28;20044;-66
2022/05/17 13:06:09;;;;;;;2.63;1.90;;;25.30;50.10;;;;;;5050583;28;20094;-66
2022/05/17 13:08:38;;;;;;;2.15;1.70;;;25.30;51.00;;;;;;5043480;28;20067;-66
2022/05/17 13:11:25;;;;;;;2.30;1.77;;;25.30;50.90;;;;;;5045953;28;20090;-65
2022/05/17 13:13:58;;;;;;;13.10;2.10;;;25.30;51.50;;;;;;5046904;28;20037;-66
2022/05/17 13:16:30;;;;;;;2.35;1.63;;;25.30;50.60;;;;;;5049510;28;20116;-68
2022/05/17 13:18:57;;;;;;;3.08;1.63;;;25.40;50.70;;;;;;5048774;28;20059;-66
2022/05/17 13:21:23;;;;;;;4.32;1.80;;;25.50;51.10;;;;;;5050593;28;20040;-65
2022/05/17 13:23:51;;;;;;;2.05;1.90;;;25.50;50.90;;;;;;5046209;28;20102;-65